Time;durP1;ratioP1;P1;durP2;ratioP2;P2;SDS_P1;SDS_P2;PMS_P1;PMS_P2;Temp;Humidity;BMP_temperature;BMP_pressure;BME280_temperature;BME280_humidity;BME280_pressure;Samples;Min_cycle;Max_cycle;Signal;HPM_P1;HPM_P2
2023/11/12 00:21:53;;;;;;;4.15;1.48;;;;;;;6.41;100.00;98704.09;4812615;29;20101;-94
2023/11/12 00:25:45;;;;;;;;;;;;;;;;;;;;;
2023/11/12 01:04:41;;;;;;;5.22;1.40;;;;;;;6.87;100.00;98669.53;4811544;29;20073;-94
2023/11/12 01:12:52;;;;;;;9.13;1.85;;;;;;;7.11;100.00;98656.56;4843400;29;20051;-93
2023/11/12 01:16:11;;;;;;;4.07;1.55;;;;;;;7.23;100.00;98660.47;4878260;29;20497;-95
2023/11/12 01:18:58;;;;;;;10.05;2.17;;;;;;;7.33;100.00;98647.16;4888435;28;20059;-93
2023/11/12 01:21:47;;;;;;;9.23;2.15;;;;;;;7.41;100.00;98638.44;4906271;28;20155;-94
2023/11/12 01:28:19;;;;;;;3.97;1.80;;;;;;;7.54;100.00;98637.91;4969350;28;20042;-94
2023/11/12 01:31:23;;;;;;;4.22;1.35;;;;;;;7.60;100.00;98633.78;4998136;28;20523;-93
2023/11/12 01:33:58;;;;;;;7.68;2.05;;;;;;;7.65;100.00;98628.81;4974537;28;20038;-93
2023/11/12 01:36:25;;;;;;;5.82;1.30;;;;;;;7.64;100.00;98637.72;4982636;28;20057;-93
2023/11/12 01:38:51;;;;;;;9.80;2.72;;;;;;;7.73;100.00;98627.97;4977512;28;20225;-93
2023/11/12 01:41:17;;;;;;;6.78;1.92;;;;;;;7.71;100.00;98625.50;4959595;28;20143;-94
2023/11/12 01:43:44;;;;;;;7.80;2.30;;;;;;;7.73;100.00;98609.56;4957466;28;20050;-92
2023/11/12 01:46:09;;;;;;;6.72;2.17;;;;;;;7.75;100.00;98618.09;4980303;28;20045;-94
2023/11/12 01:48:36;;;;;;;8.75;2.50;;;;;;;7.74;100.00;98605.94;4981775;28;20371;-93
2023/11/12 01:51:05;;;;;;;6.93;2.20;;;;;;;7.78;100.00;98613.31;4977958;28;20061;-94
2023/11/12 01:53:34;;;;;;;7.82;1.85;;;;;;;7.70;100.00;98594.94;4962240;28;20045;-94
2023/11/12 01:56:00;;;;;;;11.25;2.10;;;;;;;7.69;100.00;98601.22;4964514;28;20068;-94
2023/11/12 01:58:29;;;;;;;9.48;2.45;;;;;;;7.68;100.00;98597.75;4961535;28;20040;-94
2023/11/12 02:00:55;;;;;;;9.00;2.03;;;;;;;7.71;100.00;98590.53;4966699;28;20027;-94
2023/11/12 02:03:22;;;;;;;8.35;2.20;;;;;;;7.74;100.00;98596.22;4977403;28;20038;-93
2023/11/12 02:05:48;;;;;;;12.43;2.60;;;;;;;7.82;100.00;98598.00;4963527;28;20037;-92
2023/11/12 02:08:14;;;;;;;10.02;2.17;;;;;;;7.81;100.00;98586.69;4966248;28;20038;-94
2023/11/12 02:10:41;;;;;;;10.73;2.33;;;;;;;7.82;100.00;98590.94;4987319;28;20119;-93
2023/11/12 02:13:07;;;;;;;8.80;2.05;;;;;;;7.78;100.00;98586.19;4963291;28;20058;-95
2023/11/12 02:15:34;;;;;;;6.95;1.48;;;;;;;7.84;100.00;98587.31;4958705;28;20030;-94
2023/11/12 02:18:00;;;;;;;3.80;0.95;;;;;;;7.82;100.00;98576.97;4980301;28;20138;-94
2023/11/12 02:20:56;;;;;;;8.65;1.80;;;;;;;7.96;100.00;98580.69;4967766;28;20033;-94
2023/11/12 02:23:38;;;;;;;;;;;;;;;;;;;;;
2023/11/12 02:26:37;;;;;;;7.38;2.15;;;;;;;8.01;100.00;98567.81;4993855;28;20034;-94
2023/11/12 02:29:03;;;;;;;8.07;1.88;;;;;;;7.90;100.00;98571.66;4970714;28;20358;-95
2023/11/12 02:31:29;;;;;;;5.32;1.92;;;;;;;7.92;100.00;98567.06;4950757;28;20058;-95
2023/11/12 02:33:56;;;;;;;4.97;1.10;;;;;;;7.96;100.00;98571.97;4962944;28;20390;-93
2023/11/12 02:36:26;;;;;;;6.35;1.27;;;;;;;8.01;100.00;98559.91;4972045;28;20042;-94
2023/11/12 02:38:53;;;;;;;5.03;1.63;;;;;;;8.01;100.00;98559.91;4980137;28;20080;-93
2023/11/12 02:41:20;;;;;;;8.32;1.70;;;;;;;8.00;100.00;98560.09;4974311;28;20069;-94
2023/11/12 02:43:46;;;;;;;7.82;1.80;;;;;;;8.04;100.00;98553.50;4979885;28;20045;-94
2023/11/12 02:46:15;;;;;;;7.38;1.45;;;;;;;8.09;100.00;98555.59;4964858;28;20045;-93
2023/11/12 02:49:03;;;;;;;8.75;2.10;;;;;;;8.13;100.00;98549.00;4979373;28;20499;-94
2023/11/12 02:51:29;;;;;;;7.57;1.73;;;;;;;8.10;100.00;98544.09;4979033;28;20046;-93
2023/11/12 02:53:56;;;;;;;7.63;1.67;;;;;;;8.03;100.00;98543.94;4960113;28;20120;-94
2023/11/12 02:56:22;;;;;;;8.02;1.33;;;;;;;8.10;100.00;98539.66;4961878;28;20049;-93
2023/11/12 02:58:48;;;;;;;6.93;1.80;;;;;;;8.12;100.00;98534.22;4978900;28;20565;-94
2023/11/12 03:01:15;;;;;;;6.00;1.40;;;;;;;8.16;100.00;98544.22;4981168;28;20034;-94
2023/11/12 03:03:41;;;;;;;10.82;2.05;;;;;;;8.12;100.00;98532.38;4980905;28;20114;-94
2023/11/12 03:06:07;;;;;;;10.13;1.65;;;;;;;8.12;100.00;98529.75;4979407;28;20060;-94
2023/11/12 03:08:33;;;;;;;11.90;1.90;;;;;;;8.22;100.00;98526.06;4966681;28;20096;-93
2023/11/12 03:11:02;;;;;;;8.57;1.70;;;;;;;8.21;100.00;98527.88;4974282;28;20030;-94
2023/11/12 03:13:28;;;;;;;3.38;1.55;;;;;;;8.18;100.00;98523.81;4985563;28;20034;-94
2023/11/12 03:15:54;;;;;;;8.40;1.95;;;;;;;8.22;100.00;98524.25;4956135;28;20030;-93
2023/11/12 03:18:20;;;;;;;4.75;1.50;;;;;;;8.21;100.00;98522.63;4964494;28;20042;-94
2023/11/12 03:20:46;;;;;;;10.45;1.70;;;;;;;8.25;100.00;98523.09;4951865;28;20023;-94
2023/11/12 03:23:12;;;;;;;5.10;1.40;;;;;;;8.17;100.00;98518.72;4961997;28;20501;-94
2023/11/12 03:25:38;;;;;;;6.35;1.85;;;;;;;8.25;100.00;98521.25;4975678;28;20045;-95
2023/11/12 03:28:05;;;;;;;8.32;1.40;;;;;;;8.18;100.00;98521.16;4965400;28;20045;-94
2023/11/12 03:30:33;;;;;;;6.75;1.40;;;;;;;8.24;100.00;98519.63;4973166;28;20076;-94
2023/11/12 03:32:59;;;;;;;7.93;1.42;;;;;;;8.22;100.00;98515.56;4980917;28;20549;-94
2023/11/12 03:35:51;;;;;;;6.72;1.63;;;;;;;8.24;100.00;98514.38;4983566;28;20475;-94
2023/11/12 03:38:20;;;;;;;6.50;1.63;;;;;;;8.21;100.00;98508.63;4961771;28;20042;-95
2023/11/12 03:40:49;;;;;;;9.13;1.48;;;;;;;8.26;100.00;98501.03;4979273;28;20037;-94
2023/11/12 03:43:18;;;;;;;7.28;1.67;;;;;;;8.29;100.00;98503.31;4985710;28;20055;-95
2023/11/12 03:45:50;;;;;;;9.93;2.05;;;;;;;8.29;100.00;98487.50;4976588;28;20037;-93
2023/11/12 03:48:20;;;;;;;7.03;1.42;;;;;;;8.24;100.00;98495.94;4959495;28;20041;-94
2023/11/12 03:51:17;;;;;;;8.52;1.40;;;;;;;8.26;100.00;98493.13;4983213;28;20034;-95
2023/11/12 03:53:44;;;;;;;4.95;1.30;;;;;;;8.27;100.00;98490.31;4965048;28;20398;-94
2023/11/12 03:56:11;;;;;;;6.82;1.20;;;;;;;8.28;100.00;98483.25;4964802;28;20041;-94
2023/11/12 03:58:38;;;;;;;2.20;0.70;;;;;;;8.23;100.00;98477.69;4979296;28;20030;-94
2023/11/12 04:01:07;;;;;;;6.68;1.15;;;;;;;8.24;100.00;98479.31;4961833;28;20036;-94
2023/11/12 04:03:35;;;;;;;4.85;0.98;;;;;;;8.24;100.00;98479.31;4963011;28;20050;-94
2023/11/12 04:06:02;;;;;;;4.63;1.40;;;;;;;8.23;100.00;98468.00;4961565;28;20030;-94
2023/11/12 04:08:28;;;;;;;3.88;1.15;;;;;;;8.25;100.00;98470.47;4964930;28;20540;-94
2023/11/12 04:10:54;;;;;;;5.93;1.35;;;;;;;8.23;100.00;98461.91;4965440;28;20034;-94
2023/11/12 04:13:20;;;;;;;3.70;1.23;;;;;;;8.22;100.00;98460.28;4974118;28;20033;-94
2023/11/12 04:15:46;;;;;;;2.30;1.00;;;;;;;8.24;100.00;98468.78;4967971;28;20065;-94
2023/11/12 04:18:12;;;;;;;1.48;0.75;;;;;;;8.13;100.00;98462.97;4963434;28;20053;-94
2023/11/12 04:20:38;;;;;;;3.95;0.80;;;;;;;8.14;100.00;98458.50;4979555;28;20135;-93
2023/11/12 04:23:03;;;;;;;2.00;0.70;;;;;;;8.10;100.00;98446.72;4960942;28;20049;-93
2023/11/12 04:25:30;;;;;;;5.03;1.05;;;;;;;8.18;100.00;98441.38;4965767;28;20056;-94
2023/11/12 04:27:56;;;;;;;3.67;0.90;;;;;;;8.20;100.00;98447.31;4962472;28;20045;-94
2023/11/12 04:30:21;;;;;;;1.85;0.57;;;;;;;8.23;100.00;98449.56;4967643;28;20029;-94
2023/11/12 04:32:48;;;;;;;3.22;0.93;;;;;;;8.25;100.00;98450.19;4996188;28;20092;-95
2023/11/12 04:35:14;;;;;;;3.67;1.02;;;;;;;8.28;100.00;98449.84;4955858;28;20034;-94
2023/11/12 04:37:41;;;;;;;0.90;0.50;;;;;;;8.24;100.00;98430.16;5000603;28;20042;-94
2023/11/12 04:40:13;;;;;;;5.75;0.93;;;;;;;8.33;100.00;98436.13;4955837;28;20479;-94
2023/11/12 04:42:39;;;;;;;3.45;0.85;;;;;;;8.28;100.00;98436.69;4985909;28;20500;-95
2023/11/12 04:45:05;;;;;;;2.40;0.70;;;;;;;8.25;100.00;98429.13;4970864;28;20037;-94
2023/11/12 04:47:32;;;;;;;5.85;1.33;;;;;;;8.25;100.00;98428.34;4979632;28;20033;-94
2023/11/12 04:49:57;;;;;;;6.53;1.10;;;;;;;8.32;100.00;98423.97;4991534;28;20057;-94
2023/11/12 04:52:23;;;;;;;5.22;1.00;;;;;;;8.28;100.00;98420.09;4980740;28;20050;-95
2023/11/12 04:54:50;;;;;;;4.45;0.60;;;;;;;8.28;100.00;98420.09;4986849;28;20038;-94
2023/11/12 04:57:17;;;;;;;5.85;0.88;;;;;;;8.29;100.00;98416.44;4981620;28;20471;-94
2023/11/12 04:59:43;;;;;;;3.15;1.00;;;;;;;8.27;100.00;98418.44;4962701;28;20041;-94
2023/11/12 05:02:10;;;;;;;7.57;1.63;;;;;;;8.26;100.00;98415.00;4983647;28;20030;-94
2023/11/12 05:04:36;;;;;;;4.05;0.77;;;;;;;8.29;100.00;98421.72;4962010;28;20080;-94
2023/11/12 05:07:02;;;;;;;6.05;1.10;;;;;;;8.23;100.00;98419.78;4972761;28;20434;-94
2023/11/12 05:09:28;;;;;;;2.95;0.75;;;;;;;8.19;100.00;98408.81;4989650;28;20063;-94
2023/11/12 05:11:54;;;;;;;3.15;0.68;;;;;;;8.16;100.00;98409.16;4952869;28;20142;-94
2023/11/12 05:14:20;;;;;;;5.22;0.88;;;;;;;8.12;100.00;98400.81;4967927;28;20042;-95
2023/11/12 05:16:47;;;;;;;2.83;0.70;;;;;;;8.18;100.00;98413.28;4962461;28;20113;-95
2023/11/12 05:19:13;;;;;;;6.47;1.00;;;;;;;8.21;100.00;98403.38;4985484;28;20042;-93
2023/11/12 05:21:44;;;;;;;3.08;0.70;;;;;;;8.26;100.00;98408.91;4964382;28;21420;-94
2023/11/12 05:24:13;;;;;;;1.95;0.75;;;;;;;8.25;100.00;98402.81;4963821;28;20109;-95
2023/11/12 05:26:40;;;;;;;4.25;0.70;;;;;;;8.24;100.00;98403.81;4978312;28;20042;-94
2023/11/12 05:29:06;;;;;;;4.10;0.70;;;;;;;8.23;100.00;98404.00;4951706;28;20149;-94
2023/11/12 05:31:34;;;;;;;2.50;0.40;;;;;;;8.19;100.00;98400.91;4981872;28;20034;-94
2023/11/12 05:34:04;;;;;;;1.00;0.45;;;;;;;8.28;100.00;98396.41;4961538;28;20108;-95
2023/11/12 05:36:29;;;;;;;1.55;0.50;;;;;;;8.23;100.00;98394.31;4948832;28;20478;-94
2023/11/12 05:38:55;;;;;;;3.33;0.43;;;;;;;8.21;100.00;98384.94;4963354;28;20046;-94
2023/11/12 05:41:21;;;;;;;4.55;0.50;;;;;;;8.23;100.00;98396.13;4954893;28;20022;-94
2023/11/12 05:43:47;;;;;;;2.05;0.40;;;;;;;8.24;100.00;98388.03;4974783;28;20047;-94
2023/11/12 05:46:13;;;;;;;1.33;0.38;;;;;;;8.24;100.00;98388.03;4966651;28;20038;-95
2023/11/12 05:48:39;;;;;;;5.88;0.60;;;;;;;8.23;100.00;98382.94;4986570;28;20367;-95
2023/11/12 05:51:05;;;;;;;2.38;0.50;;;;;;;8.24;100.00;98382.78;4971427;28;20054;-93
2023/11/12 05:53:32;;;;;;;3.33;0.50;;;;;;;8.27;100.00;98382.41;4979724;28;20033;-94
2023/11/12 05:55:57;;;;;;;3.25;0.68;;;;;;;8.23;100.00;98378.53;4964925;28;20026;-94
2023/11/12 05:58:23;;;;;;;2.95;0.40;;;;;;;8.29;100.00;98369.91;4987872;28;20490;-94
2023/11/12 06:00:53;;;;;;;2.25;0.60;;;;;;;8.30;100.00;98370.69;4993854;28;20084;-94
2023/11/12 06:03:19;;;;;;;3.67;0.50;;;;;;;8.29;100.00;98361.19;4964484;28;20045;-95
2023/11/12 06:05:45;;;;;;;2.85;0.68;;;;;;;8.32;100.00;98360.81;4984565;28;20038;-94
2023/11/12 06:08:10;;;;;;;4.25;0.90;;;;;;;8.34;100.00;98361.47;4964663;28;20046;-95
2023/11/12 06:10:37;;;;;;;5.90;0.98;;;;;;;8.35;100.00;98360.44;4985291;28;20033;-94
2023/11/12 06:13:04;;;;;;;3.20;0.55;;;;;;;8.37;100.00;98363.72;4955634;28;20048;-95
2023/11/12 06:15:30;;;;;;;1.33;0.47;;;;;;;8.37;100.00;98357.63;4957331;28;20045;-95
2023/11/12 06:17:55;;;;;;;1.40;0.47;;;;;;;8.39;100.00;98358.28;4963508;28;20038;-96
2023/11/12 06:20:23;;;;;;;1.30;0.50;;;;;;;8.36;100.00;98348.13;4975849;28;20038;-95
2023/11/12 06:22:49;;;;;;;1.83;0.52;;;;;;;8.28;100.00;98341.91;4983239;28;20758;-94
2023/11/12 06:25:15;;;;;;;3.90;0.47;;;;;;;8.35;100.00;98349.09;4969361;28;20034;-95
2023/11/12 06:27:41;;;;;;;3.78;0.47;;;;;;;8.37;100.00;98342.66;4979895;28;20046;-94
2023/11/12 06:30:09;;;;;;;0.50;0.30;;;;;;;8.35;100.00;98334.13;4973066;28;20040;-95
2023/11/12 06:32:35;;;;;;;1.85;0.47;;;;;;;8.36;100.00;98334.94;4980278;28;20048;-95
2023/11/12 06:35:00;;;;;;;3.55;0.40;;;;;;;8.32;100.00;98340.59;4968362;28;20042;-95
2023/11/12 06:37:27;;;;;;;1.55;0.38;;;;;;;8.31;100.00;98344.19;4964618;28;20040;-94
2023/11/12 06:39:52;;;;;;;2.20;0.30;;;;;;;8.26;100.00;98340.47;4962955;28;20076;-93
2023/11/12 06:42:20;;;;;;;2.53;0.52;;;;;;;8.30;100.00;98352.28;4994850;28;20474;-93
2023/11/12 06:44:46;;;;;;;1.63;0.30;;;;;;;8.19;100.00;98358.81;4958133;28;20048;-94
2023/11/12 06:47:14;;;;;;;2.30;0.70;;;;;;;8.17;100.00;98340.56;4964011;28;20042;-96
2023/11/12 06:49:40;;;;;;;0.65;0.20;;;;;;;8.14;100.00;98350.63;4966474;28;20037;-95
2023/11/12 06:52:06;;;;;;;0.63;0.30;;;;;;;8.13;100.00;98352.47;4966137;28;20029;-94
2023/11/12 06:54:32;;;;;;;1.05;0.30;;;;;;;8.17;100.00;98350.28;4964900;28;20442;-94
2023/11/12 06:56:59;;;;;;;2.05;0.25;;;;;;;8.21;100.00;98340.19;4956036;28;20026;-94
2023/11/12 06:59:26;;;;;;;2.35;0.60;;;;;;;8.23;100.00;98351.38;4965167;28;20055;-95
2023/11/12 07:01:51;;;;;;;2.70;0.45;;;;;;;8.27;100.00;98352.63;4969139;28;20036;-94
2023/11/12 07:04:18;;;;;;;1.30;0.30;;;;;;;8.20;100.00;98347.28;4959654;28;20474;-95
2023/11/12 07:06:43;;;;;;;1.60;0.45;;;;;;;8.24;100.00;98338.03;4978817;28;20034;-94
2023/11/12 07:09:10;;;;;;;2.15;0.20;;;;;;;8.28;100.00;98330.59;4966539;28;20026;-94
2023/11/12 07:11:37;;;;;;;3.08;0.30;;;;;;;8.22;100.00;98323.44;4989891;28;20041;-96
2023/11/12 07:14:03;;;;;;;5.35;0.47;;;;;;;8.17;100.00;98316.09;4979074;28;20092;-95
2023/11/12 07:16:32;;;;;;;0.20;0.20;;;;;;;8.19;100.00;98322.78;4980038;28;20124;-95
2023/11/12 07:18:58;;;;;;;0.30;0.10;;;;;;;8.16;100.00;98317.88;4963108;28;20065;-94
2023/11/12 07:21:26;;;;;;;2.13;0.20;;;;;;;8.12;100.00;98321.06;5002203;28;20026;-94
2023/11/12 07:23:53;;;;;;;0.98;0.10;;;;;;;8.16;100.00;98324.94;4996321;28;20049;-92
2023/11/12 07:26:18;;;;;;;2.53;0.20;;;;;;;8.24;100.00;98327.50;4964680;28;20478;-95
2023/11/12 07:28:44;;;;;;;0.40;0.20;;;;;;;8.24;100.00;98314.34;4964425;28;20037;-94
2023/11/12 07:31:10;;;;;;;1.55;0.20;;;;;;;8.20;100.00;98310.44;4960185;28;20592;-95
2023/11/12 07:33:37;;;;;;;1.65;0.13;;;;;;;8.29;100.00;98324.31;4970975;28;20034;-95
2023/11/12 07:36:05;;;;;;;0.50;0.10;;;;;;;8.25;100.00;98312.53;4966990;28;20029;-95
2023/11/12 07:38:31;;;;;;;0.43;0.20;;;;;;;8.16;100.00;98317.88;4976424;28;20040;-95
2023/11/12 07:40:56;;;;;;;1.80;0.10;;;;;;;8.19;100.00;98325.41;4969011;28;20042;-94
2023/11/12 07:43:22;;;;;;;0.50;0.08;;;;;;;8.27;100.00;98321.03;4961395;28;20053;-94
2023/11/12 07:45:54;;;;;;;0.68;0.20;;;;;;;8.34;100.00;98313.25;4981333;28;20040;-96
2023/11/12 07:48:20;;;;;;;1.08;0.10;;;;;;;8.34;100.00;98315.88;4966146;28;20101;-96
2023/11/12 07:51:52;;;;;;;0.70;0.70;;;;;;;8.46;100.00;98313.63;4958459;28;20034;-95
2023/11/12 07:55:25;;;;;;;1.30;0.30;;;;;;;8.49;100.00;98321.94;4947346;28;20127;-96
2023/11/12 07:57:53;;;;;;;2.08;0.10;;;;;;;8.42;100.00;98321.06;4942665;28;20033;-96
2023/11/12 08:00:24;;;;;;;1.52;0.10;;;;;;;8.44;100.00;98327.75;4973226;28;20038;-95
2023/11/12 08:02:56;;;;;;;19.25;14.48;;;;;;;8.52;100.00;98334.75;4949127;28;20057;-95
2023/11/12 08:05:26;;;;;;;5.15;3.50;;;;;;;8.46;100.00;98322.31;4951549;28;20030;-95
2023/11/12 08:08:01;;;;;;;8.77;7.78;;;;;;;8.57;100.00;98326.31;4978067;28;20031;-96
2023/11/12 08:10:32;;;;;;;2.10;1.73;;;;;;;8.54;100.00;98329.28;4957670;28;20139;-95
2023/11/12 08:12:59;;;;;;;3.10;1.70;;;;;;;8.57;100.00;98331.59;4982830;28;20042;-95
2023/11/12 08:15:26;;;;;;;30.63;27.25;;;;;;;8.64;100.00;98331.69;4946817;28;20077;-94
2023/11/12 08:17:52;;;;;;;44.90;40.03;;;;;;;8.68;100.00;98325.03;4943716;28;20042;-94
2023/11/12 08:20:18;;;;;;;27.05;24.30;;;;;;;8.75;100.00;98325.13;4963022;28;20041;-94
2023/11/12 08:22:43;;;;;;;3.10;2.80;;;;;;;8.71;100.00;98324.69;4960043;28;20066;-92
2023/11/12 08:25:10;;;;;;;3.03;2.50;;;;;;;8.72;100.00;98328.94;4973391;28;20057;-95
2023/11/12 08:27:38;;;;;;;7.05;6.35;;;;;;;8.73;100.00;98327.94;4973186;28;20026;-95
2023/11/12 08:30:05;;;;;;;7.55;6.85;;;;;;;8.79;100.00;98339.56;4987939;28;20031;-95
2023/11/12 08:32:35;;;;;;;11.52;8.25;;;;;;;8.82;100.00;98347.09;4965060;28;20034;-95
2023/11/12 08:35:01;;;;;;;4.55;3.42;;;;;;;8.70;100.00;98336.19;4971879;28;20038;-95
2023/11/12 08:37:31;;;;;;;4.10;3.38;;;;;;;8.81;100.00;98345.44;4957454;28;20050;-96
2023/11/12 08:40:02;;;;;;;9.95;4.95;;;;;;;8.86;100.00;98350.16;4983113;28;20038;-96
2023/11/12 08:42:44;;;;;;;2.95;2.00;;;;;;;8.76;100.00;98353.91;4943159;28;20064;-95
2023/11/12 08:45:26;;;;;;;2.75;0.20;;;;;;;8.81;100.00;98353.34;4995019;28;20050;-95
2023/11/12 08:48:07;;;;;;;1.85;0.40;;;;;;;8.83;100.00;98359.25;4974809;28;20038;-95
2023/11/12 08:50:33;;;;;;;1.77;0.30;;;;;;;8.81;100.00;98359.44;4939407;28;20050;-95
2023/11/12 08:53:07;;;;;;;1.50;0.28;;;;;;;8.90;100.00;98367.25;4958019;28;20482;-92
2023/11/12 08:55:38;;;;;;;1.08;0.10;;;;;;;8.87;100.00;98365.78;4957248;28;20046;-94
2023/11/12 08:58:10;;;;;;;2.35;0.45;;;;;;;8.91;100.00;98356.53;4988462;28;20505;-96
2023/11/12 09:00:54;;;;;;;0.20;0.20;;;;;;;8.84;100.00;98355.59;4980404;28;20050;-94
2023/11/12 09:03:33;;;;;;;1.25;0.50;;;;;;;8.89;100.00;98368.22;4970934;28;20488;-94
2023/11/12 09:06:02;;;;;;;4.70;3.40;;;;;;;8.92;100.00;98366.03;4974593;28;20038;-96
2023/11/12 09:08:56;;;;;;;3.20;0.90;;;;;;;9.04;100.00;98362.94;4984122;28;20073;-96
2023/11/12 09:11:23;;;;;;;2.25;0.50;;;;;;;8.90;100.00;98356.72;4978150;28;20034;-94
2023/11/12 09:13:49;;;;;;;0.77;0.20;;;;;;;9.00;100.00;98367.75;4965843;28;20041;-94
2023/11/12 09:16:26;;;;;;;1.40;0.30;;;;;;;9.01;100.00;98366.78;4948945;28;20077;-94
2023/11/12 09:24:07;;;;;;;7.93;5.63;;;;;;;9.26;100.00;98389.31;4953386;28;20098;-95
2023/11/12 09:27:00;;;;;;;13.40;11.68;;;;;;;9.37;100.00;98388.81;4950067;28;20058;-95
2023/11/12 09:29:30;;;;;;;4.97;3.53;;;;;;;9.42;100.00;98393.53;4973083;28;20046;-94
2023/11/12 09:32:10;;;;;;;9.82;6.32;;;;;;;9.52;100.00;98406.41;5008469;28;20570;-95
2023/11/12 09:34:36;;;;;;;13.25;8.52;;;;;;;9.60;100.00;98406.31;4976520;28;20034;-94
2023/11/12 09:37:15;;;;;;;20.02;12.90;;;;;;;9.62;100.00;98401.63;4963466;28;20038;-95
2023/11/12 09:39:41;;;;;;;5.38;3.45;;;;;;;9.63;100.00;98398.00;4953040;28;20034;-94
2023/11/12 09:42:21;;;;;;;13.23;8.35;;;;;;;9.74;100.00;98407.22;4973038;28;20042;-94
2023/11/12 09:44:48;;;;;;;10.70;9.75;;;;;;;9.68;100.00;98414.06;4961081;28;20074;-94
2023/11/12 09:47:20;;;;;;;4.75;3.30;;;;;;;9.74;100.00;98409.03;4940715;28;20042;-94
2023/11/12 09:49:50;;;;;;;12.30;7.45;;;;;;;9.69;100.00;98404.34;4953356;28;20045;-93
2023/11/12 09:52:22;;;;;;;4.57;3.53;;;;;;;9.77;100.00;98406.03;4972118;28;20029;-95
2023/11/12 09:54:50;;;;;;;4.50;3.70;;;;;;;9.76;100.00;98396.50;4957380;28;20483;-95
2023/11/12 09:57:23;;;;;;;1.77;1.58;;;;;;;9.79;100.00;98389.00;4962476;28;20483;-95
2023/11/12 10:00:12;;;;;;;4.45;0.80;;;;;;;9.91;100.00;98399.03;4944021;28;20041;-95
2023/11/12 10:02:40;;;;;;;2.35;1.60;;;;;;;9.86;100.00;98390.91;4946453;28;20034;-96
2023/11/12 10:05:14;;;;;;;1.33;1.05;;;;;;;9.89;100.00;98414.25;4947256;28;20062;-95
2023/11/12 10:07:47;;;;;;;0.60;0.60;;;;;;;9.90;100.00;98402.69;4946703;28;20050;-95
2023/11/12 10:10:35;;;;;;;0.43;0.40;;;;;;;9.89;100.00;98407.16;4936658;28;20045;-95
2023/11/12 10:13:14;;;;;;;;;;;;;;;;;;;;;
2023/11/12 10:15:52;;;;;;;1.48;0.52;;;;;;;9.88;100.00;98394.13;4964311;28;20421;-95
2023/11/12 10:18:34;;;;;;;3.35;0.77;;;;;;;9.99;100.00;98390.16;4959833;28;20102;-96
2023/11/12 10:21:34;;;;;;;10.68;9.63;;;;;;;10.16;100.00;98417.13;4962512;28;20213;-95
2023/11/12 10:24:09;;;;;;;4.32;3.92;;;;;;;10.14;100.00;98414.66;4949573;28;20034;-96
2023/11/12 10:26:37;;;;;;;5.80;0.70;;;;;;;10.18;100.00;98415.91;4950688;28;20026;-95
2023/11/12 10:29:18;;;;;;;2.75;0.85;;;;;;;10.29;100.00;98416.38;4941255;28;20061;-94
2023/11/12 10:31:50;;;;;;;1.88;1.15;;;;;;;10.24;100.00;98424.88;4958878;28;20097;-94
2023/11/12 10:34:17;;;;;;;2.53;1.35;;;;;;;10.34;100.00;98429.00;4972392;28;20038;-94
2023/11/12 10:37:03;;;;;;;3.60;1.30;;;;;;;10.43;100.00;98436.56;4951469;28;20042;-94
2023/11/12 10:39:43;;;;;;;3.92;1.10;;;;;;;10.39;100.00;98427.41;4961053;28;20058;-94
2023/11/12 10:42:15;;;;;;;4.55;1.10;;;;;;;10.47;100.00;98434.41;4961524;28;20121;-94
2023/11/12 10:44:49;;;;;;;4.10;0.60;;;;;;;10.44;100.00;98424.19;4963305;28;20046;-94
2023/11/12 10:47:29;;;;;;;3.20;1.25;;;;;;;10.50;100.00;98425.25;4983243;28;20034;-95
2023/11/12 10:49:56;;;;;;;3.00;0.70;;;;;;;10.51;100.00;98438.28;4956847;28;20069;-93
2023/11/12 10:52:23;;;;;;;5.00;0.65;;;;;;;10.48;100.00;98445.78;4977238;28;20039;-94
2023/11/12 10:54:53;;;;;;;8.27;0.75;;;;;;;10.48;100.00;98443.16;4972756;28;20034;-93
2023/11/12 10:57:23;;;;;;;8.95;0.98;;;;;;;10.53;100.00;98446.00;4969522;28;20030;-94
2023/11/12 10:59:53;;;;;;;4.93;1.58;;;;;;;10.70;100.00;98451.00;4981109;28;20124;-94
2023/11/12 11:02:21;;;;;;;5.45;1.08;;;;;;;10.82;100.00;98453.91;4979159;28;20026;-94
2023/11/12 11:04:55;;;;;;;7.10;1.10;;;;;;;10.94;100.00;98468.19;4978826;28;20037;-94
2023/11/12 11:07:43;;;;;;;5.82;1.95;;;;;;;11.08;100.00;98465.63;4979923;28;20092;-93
2023/11/12 11:10:20;;;;;;;25.00;12.82;;;;;;;11.20;100.00;98466.69;4979960;28;20038;-94
2023/11/12 11:12:59;;;;;;;10.30;2.90;;;;;;;11.33;100.00;98471.22;4962577;28;20037;-94
2023/11/12 11:15:47;;;;;;;11.05;5.40;;;;;;;11.40;100.00;98468.59;4976436;28;20069;-93
2023/11/12 11:18:32;;;;;;;16.92;9.77;;;;;;;11.49;100.00;98475.34;4966282;28;20048;-95
2023/11/12 11:21:04;;;;;;;33.72;22.17;;;;;;;11.51;100.00;98485.72;4962286;28;20042;-94
2023/11/12 11:23:52;;;;;;;18.13;6.28;;;;;;;11.53;100.00;98487.13;4977444;28;20112;-94
2023/11/12 11:26:26;;;;;;;11.20;3.60;;;;;;;11.54;100.00;98480.03;4964038;28;20102;-95
2023/11/12 11:29:12;;;;;;;13.07;1.92;;;;;;;11.54;100.00;98480.84;4963435;28;20042;-95
2023/11/12 11:31:47;;;;;;;13.93;1.98;;;;;;;11.58;100.00;98488.38;4970486;28;20157;-95
2023/11/12 11:34:35;;;;;;;15.07;1.47;;;;;;;11.51;100.00;98491.84;4988754;28;20042;-95
2023/11/12 11:41:07;;;;;;;14.45;3.25;;;;;;;11.76;100.00;98479.88;5004298;28;20034;-94
2023/11/12 11:43:33;;;;;;;14.40;2.88;;;;;;;11.77;100.00;98479.66;4981638;28;20065;-93
2023/11/12 11:46:11;;;;;;;18.73;3.83;;;;;;;11.84;100.00;98474.38;4959279;28;20029;-94
2023/11/12 11:49:16;;;;;;;18.48;5.88;;;;;;;11.79;100.00;98469.69;4968507;28;20041;-95
2023/11/12 11:51:43;;;;;;;22.00;2.08;;;;;;;11.77;100.00;98458.50;4981474;28;20042;-94
2023/11/12 11:54:16;;;;;;;13.05;2.50;;;;;;;11.83;100.00;98470.13;4961863;28;20066;-94
2023/11/12 11:56:42;;;;;;;16.73;2.72;;;;;;;11.88;100.00;98467.66;4963501;28;20549;-93
2023/11/12 11:59:08;;;;;;;16.55;3.90;;;;;;;11.89;100.00;98476.44;4961719;28;20327;-94
2023/11/12 12:01:47;;;;;;;20.45;5.07;;;;;;;11.98;100.00;98469.91;4969920;28;20040;-94
2023/11/12 12:04:14;;;;;;;7.45;1.85;;;;;;;12.00;100.00;98465.25;4962138;28;20039;-95
2023/11/12 12:07:07;;;;;;;16.48;4.53;;;;;;;12.07;100.00;98469.72;4991301;28;20424;-93
2023/11/12 12:09:36;;;;;;;17.67;3.28;;;;;;;12.19;100.00;98470.78;4993942;28;20042;-94
2023/11/12 12:12:02;;;;;;;14.68;2.08;;;;;;;12.10;100.00;98464.06;4963959;28;20093;-94
2023/11/12 12:14:38;;;;;;;16.48;2.35;;;;;;;12.15;100.00;98469.56;4975674;28;20120;-94
2023/11/12 12:17:07;;;;;;;15.57;3.47;;;;;;;12.11;100.00;98465.69;4964004;28;20041;-95
2023/11/12 12:19:40;;;;;;;18.35;3.20;;;;;;;12.19;100.00;98462.00;4976341;28;20034;-94
2023/11/12 12:22:06;;;;;;;11.13;1.77;;;;;;;12.17;100.00;98472.00;4965478;28;20182;-93
2023/11/12 12:24:36;;;;;;;14.10;4.32;;;;;;;12.15;100.00;98477.50;4972439;28;20483;-93
2023/11/12 12:27:09;;;;;;;18.77;2.28;;;;;;;12.04;100.00;98469.09;4977609;28;20034;-92
2023/11/12 12:29:38;;;;;;;18.42;2.53;;;;;;;11.99;100.00;98476.03;4970289;28;20058;-91
2023/11/12 12:32:16;;;;;;;10.60;2.00;;;;;;;11.96;100.00;98490.47;4985464;28;20034;-93
2023/11/12 12:35:00;;;;;;;13.40;2.05;;;;;;;11.84;100.00;98484.97;4942618;28;20061;-93
2023/11/12 12:37:28;;;;;;;19.63;2.20;;;;;;;11.84;100.00;98495.56;4963322;28;20059;-94
2023/11/12 12:40:19;;;;;;;13.65;1.80;;;;;;;11.89;100.00;98502.91;4970817;28;20140;-92
2023/11/12 12:42:43;;;;;;;13.13;2.83;;;;;;;11.92;100.00;98502.50;4971388;28;20177;-92
2023/11/12 12:45:15;;;;;;;17.20;2.28;;;;;;;12.22;100.00;98509.28;4979481;28;20041;-93
2023/11/12 12:47:44;;;;;;;7.80;1.88;;;;;;;12.24;100.00;98509.88;4980071;28;20529;-95
2023/11/12 12:50:13;;;;;;;14.98;2.10;;;;;;;12.19;100.00;98502.56;4975488;28;20038;-94
2023/11/12 12:52:46;;;;;;;8.57;1.83;;;;;;;12.15;100.00;98475.66;4979916;28;20390;-92
2023/11/12 12:55:16;;;;;;;11.65;2.40;;;;;;;12.17;100.00;98480.75;4963147;28;20037;-92
2023/11/12 12:57:43;;;;;;;10.80;1.95;;;;;;;12.13;100.00;98477.72;4967025;28;20048;-92
2023/11/12 13:00:11;;;;;;;10.98;2.03;;;;;;;12.08;100.00;98469.56;4969197;28;20038;-93
2023/11/12 13:02:42;;;;;;;14.55;2.70;;;;;;;12.10;100.00;98472.81;4977920;28;20042;-92
2023/11/12 13:05:18;;;;;;;10.27;2.00;;;;;;;12.02;100.00;98480.94;4975624;28;20034;-93
2023/11/12 13:07:50;;;;;;;10.43;1.88;;;;;;;11.98;100.00;98469.09;4959850;28;20049;-92
2023/11/12 13:10:22;;;;;;;13.50;1.83;;;;;;;11.98;100.00;98485.81;4966685;28;20042;-92